• Join FlightAware (Why Join?)
  • Login
  • US Flag 
02:27PM EDT


 

Airport Tracker/Info


-or-


 

Live Flight TrackerFlight Track Log ✈ N649TP ✈ 18-Apr-2013 ✈ KISP - KSNC

Flight Track Log - Related Links

Times and Time Zones

All times are in EDT time to prevent confusion due to time zone crossing. See the N649TP flight status page for this flight to view local times or setup timezone preferences in your user account.

Time Position Orientation Groundspeed Altitude Reporting Facility
EDT Latitude Longitude Course Direction KTS MPH feet Rate Location/Type
06:27PM 40.7833 -73.0833 90° East 87 100 800  Level New York TRACON
06:28PM 40.7833 -73.0500 90° East 108 124 1,300 540 Climbing New York TRACON
06:29PM 40.8000 -73.0167 57° Northeast 136 157 1,900 420 Climbing New York TRACON
06:30PM 40.8333 -73.0000 21° North 141 162 2,200 360 Climbing New York TRACON
06:31PM 40.8833 -72.9833 14° North 140 161 2,700 300 Climbing New York TRACON
06:32PM 40.9167 -72.9500 37° Northeast 142 163 2,900 60 Climbing New York TRACON
06:33PM 40.9500 -72.9333 21° North 148 170 2,900  Level New York TRACON
06:34PM 40.9833 -72.9000 37° Northeast 147 169 2,900  Level New York TRACON
06:35PM 41.0167 -72.8833 21° North 153 176 2,900  Level New York TRACON
06:36PM 41.0667 -72.8500 27° Northeast 152 175 2,900  Level New York TRACON
06:37PM 41.1000 -72.8333 21° North 153 176 2,900  Level New York TRACON
06:38PM 41.1333 -72.8167 21° North 152 175 2,900 -240 Level New York TRACON
06:39PM 41.1833 -72.7833 27° Northeast 160 184 2,500 -540 Descending New York TRACON
06:40PM 41.2167 -72.7500 37° Northeast 166 191 1,900 -720 Descending New York TRACON
06:42PM 41.2564 -72.7182 31° Northeast  Level FlightAware Approximate
06:49PM 41.3650 -72.5368 56° Northeast  Level FlightAware Approximate
06:50PM 41.3791 -72.5084 56° Northeast  Level FlightAware Approximate
06:51PM 41.3833 -72.5000 56° Northeast  Level FlightAware Approximate
06:52PM 41.3837 -72.5058 56° Northeast  Level Estimated
06:53PM 41.3833 -72.5000 56° Northeast  Level FlightAware Approximate
06:54PM 41.3837 -72.5058 56° Northeast  Level Estimated
06:55PM 41.3833 -72.5000 56° Northeast  Level FlightAware Approximate
06:56PM 41.3837 -72.5058 56° Northeast  Level Estimated
06:57PM 41.3833 -72.5000 56° Northeast  Level FlightAware Approximate
06:58PM 41.3837 -72.5058 56° Northeast  Level Estimated
06:59PM 41.3833 -72.5000 56° Northeast  Level FlightAware Approximate
07:00PM 41.3837 -72.5058 56° Northeast  Level Estimated
07:01PM 41.3833 -72.5000 56° Northeast  Level FlightAware Approximate